sensor_id;sensor_type;location;lat;lon;timestamp;temperature;humidity
25342;DHT22;13298;48.792;9.154;2024-01-15T00:00:14;-1.90;99.90
25342;DHT22;13298;48.792;9.154;2024-01-15T00:02:40;-1.90;99.90
25342;DHT22;13298;48.792;9.154;2024-01-15T00:05:06;-2.00;99.90
25342;DHT22;13298;48.792;9.154;2024-01-15T00:07:31;-2.10;99.90
25342;DHT22;13298;48.792;9.154;2024-01-15T00:09:57;-2.20;99.90
25342;DHT22;13298;48.792;9.154;2024-01-15T00:12:23;-2.30;99.90
25342;DHT22;13298;48.792;9.154;2024-01-15T00:14:48;-2.40;99.90
25342;DHT22;13298;48.792;9.154;2024-01-15T00:17:14;-2.50;99.90
25342;DHT22;13298;48.792;9.154;2024-01-15T00:19:40;-2.50;99.90
25342;DHT22;13298;48.792;9.154;2024-01-15T00:22:05;-2.50;99.90
25342;DHT22;13298;48.792;9.154;2024-01-15T00:24:31;-2.60;99.90
25342;DHT22;13298;48.792;9.154;2024-01-15T00:26:57;-2.70;99.90
25342;DHT22;13298;48.792;9.154;2024-01-15T00:29:22;-2.70;99.90
25342;DHT22;13298;48.792;9.154;2024-01-15T00:31:48;-2.80;99.90
25342;DHT22;13298;48.792;9.154;2024-01-15T00:34:14;-2.80;99.90
25342;DHT22;13298;48.792;9.154;2024-01-15T00:36:39;-2.90;99.90
25342;DHT22;13298;48.792;9.154;2024-01-15T00:39:05;-2.90;99.90
25342;DHT22;13298;48.792;9.154;2024-01-15T00:41:31;-3.00;99.90
25342;DHT22;13298;48.792;9.154;2024-01-15T00:43:57;-3.00;99.90
25342;DHT22;13298;48.792;9.154;2024-01-15T00:46:22;-3.10;99.90
25342;DHT22;13298;48.792;9.154;2024-01-15T00:48:48;-3.10;99.90
25342;DHT22;13298;48.792;9.154;2024-01-15T00:51:14;-3.00;99.90
25342;DHT22;13298;48.792;9.154;2024-01-15T00:53:40;-3.00;99.90
25342;DHT22;13298;48.792;9.154;2024-01-15T00:56:05;-3.00;99.90
25342;DHT22;13298;48.792;9.154;2024-01-15T00:58:31;-2.90;99.90
25342;DHT22;13298;48.792;9.154;2024-01-15T01:00:57;-2.80;99.90
25342;DHT22;13298;48.792;9.154;2024-01-15T01:03:22;-2.70;99.90
25342;DHT22;13298;48.792;9.154;2024-01-15T01:05:49;-2.60;99.90
25342;DHT22;13298;48.792;9.154;2024-01-15T01:08:15;-2.50;99.90
25342;DHT22;13298;48.792;9.154;2024-01-15T01:10:41;-2.40;99.90
25342;DHT22;13298;48.792;9.154;2024-01-15T01:13:08;-2.30;99.90
25342;DHT22;13298;48.792;9.154;2024-01-15T01:15:34;-2.30;99.90
25342;DHT22;13298;48.792;9.154;2024-01-15T01:18:00;-2.20;99.90
25342;DHT22;13298;48.792;9.154;2024-01-15T01:20:25;-2.20;99.90
25342;DHT22;13298;48.792;9.154;2024-01-15T01:22:51;-2.10;99.90
25342;DHT22;13298;48.792;9.154;2024-01-15T01:25:17;-2.10;99.90
25342;DHT22;13298;48.792;9.154;2024-01-15T01:27:42;-2.00;99.90
25342;DHT22;13298;48.792;9.154;2024-01-15T01:30:09;-2.00;99.90
25342;DHT22;13298;48.792;9.154;2024-01-15T01:32:34;-2.00;99.90
25342;DHT22;13298;48.792;9.154;2024-01-15T01:35:01;-2.00;99.90
25342;DHT22;13298;48.792;9.154;2024-01-15T01:37:26;-1.90;99.90
25342;DHT22;13298;48.792;9.154;2024-01-15T01:39:52;-1.90;99.90
25342;DHT22;13298;48.792;9.154;2024-01-15T01:42:18;-1.90;99.90
25342;DHT22;13298;48.792;9.154;2024-01-15T01:44:43;-1.80;99.90
25342;DHT22;13298;48.792;9.154;2024-01-15T01:47:09;-1.80;99.90
25342;DHT22;13298;48.792;9.154;2024-01-15T01:49:36;-1.80;99.90
25342;DHT22;13298;48.792;9.154;2024-01-15T01:52:05;-1.80;99.90
25342;DHT22;13298;48.792;9.154;2024-01-15T01:54:35;-1.70;99.90
25342;DHT22;13298;48.792;9.154;2024-01-15T01:57:03;-1.70;99.90
25342;DHT22;13298;48.792;9.154;2024-01-15T01:59:30;-1.70;99.90
25342;DHT22;13298;48.792;9.154;2024-01-15T02:01:56;-1.70;99.90
25342;DHT22;13298;48.792;9.154;2024-01-15T02:04:24;-1.70;99.90
25342;DHT22;13298;48.792;9.154;2024-01-15T02:06:50;-1.80;99.90
25342;DHT22;13298;48.792;9.154;2024-01-15T02:09:17;-1.80;99.90
25342;DHT22;13298;48.792;9.154;2024-01-15T02:11:46;-1.90;99.90
25342;DHT22;13298;48.792;9.154;2024-01-15T02:14:12;-1.90;99.90
25342;DHT22;13298;48.792;9.154;2024-01-15T02:16:38;-2.00;99.90
25342;DHT22;13298;48.792;9.154;2024-01-15T02:19:04;-2.10;99.90
25342;DHT22;13298;48.792;9.154;2024-01-15T02:21:30;-2.10;99.90
25342;DHT22;13298;48.792;9.154;2024-01-15T02:23:56;-2.30;99.90
25342;DHT22;13298;48.792;9.154;2024-01-15T02:26:22;-2.30;99.90
25342;DHT22;13298;48.792;9.154;2024-01-15T02:28:49;-2.40;99.90
25342;DHT22;13298;48.792;9.154;2024-01-15T02:31:16;-2.50;99.90
25342;DHT22;13298;48.792;9.154;2024-01-15T02:33:42;-2.50;99.90
25342;DHT22;13298;48.792;9.154;2024-01-15T02:36:09;-2.60;99.90
25342;DHT22;13298;48.792;9.154;2024-01-15T02:38:36;-2.60;99.90
25342;DHT22;13298;48.792;9.154;2024-01-15T02:41:01;-2.70;99.90
25342;DHT22;13298;48.792;9.154;2024-01-15T02:43:27;-2.80;99.90
25342;DHT22;13298;48.792;9.154;2024-01-15T02:45:53;-2.90;99.90
25342;DHT22;13298;48.792;9.154;2024-01-15T02:48:18;-2.90;99.90
25342;DHT22;13298;48.792;9.154;2024-01-15T02:50:44;-3.00;99.90
25342;DHT22;13298;48.792;9.154;2024-01-15T02:53:10;-3.00;99.90
25342;DHT22;13298;48.792;9.154;2024-01-15T02:55:35;-3.10;99.90
25342;DHT22;13298;48.792;9.154;2024-01-15T02:58:01;-3.10;99.90
25342;DHT22;13298;48.792;9.154;2024-01-15T03:00:27;-3.10;99.90
25342;DHT22;13298;48.792;9.154;2024-01-15T03:02:52;-3.10;99.90
25342;DHT22;13298;48.792;9.154;2024-01-15T03:05:18;-3.20;99.90
25342;DHT22;13298;48.792;9.154;2024-01-15T03:07:44;-3.20;99.90
25342;DHT22;13298;48.792;9.154;2024-01-15T03:10:09;-3.20;99.90
25342;DHT22;13298;48.792;9.154;2024-01-15T03:12:35;-3.20;99.90
25342;DHT22;13298;48.792;9.154;2024-01-15T03:15:01;-3.20;99.90
25342;DHT22;13298;48.792;9.154;2024-01-15T03:17:27;-3.20;99.90
25342;DHT22;13298;48.792;9.154;2024-01-15T03:19:52;-3.20;99.90
25342;DHT22;13298;48.792;9.154;2024-01-15T03:22:18;-3.20;99.90
25342;DHT22;13298;48.792;9.154;2024-01-15T03:24:44;-3.20;99.90
25342;DHT22;13298;48.792;9.154;2024-01-15T03:27:10;-3.20;99.90
25342;DHT22;13298;48.792;9.154;2024-01-15T03:29:35;-3.20;99.90
25342;DHT22;13298;48.792;9.154;2024-01-15T03:32:01;-3.10;99.90
25342;DHT22;13298;48.792;9.154;2024-01-15T03:34:27;-3.10;99.90
25342;DHT22;13298;48.792;9.154;2024-01-15T03:36:52;-3.10;99.90
25342;DHT22;13298;48.792;9.154;2024-01-15T03:39:18;-3.00;99.90
25342;DHT22;13298;48.792;9.154;2024-01-15T03:41:44;-3.00;99.90
25342;DHT22;13298;48.792;9.154;2024-01-15T03:44:10;-2.90;99.90
25342;DHT22;13298;48.792;9.154;2024-01-15T03:46:36;-2.90;99.90
25342;DHT22;13298;48.792;9.154;2024-01-15T03:49:01;-2.90;99.90
25342;DHT22;13298;48.792;9.154;2024-01-15T03:51:27;-2.80;99.90
25342;DHT22;13298;48.792;9.154;2024-01-15T03:53:53;-2.60;99.90
25342;DHT22;13298;48.792;9.154;2024-01-15T03:56:19;-2.50;99.90
25342;DHT22;13298;48.792;9.154;2024-01-15T03:58:44;-2.40;99.90
25342;DHT22;13298;48.792;9.154;2024-01-15T04:01:10;-2.30;99.90
25342;DHT22;13298;48.792;9.154;2024-01-15T04:03:36;-2.10;99.90
25342;DHT22;13298;48.792;9.154;2024-01-15T04:06:03;-2.00;99.90
25342;DHT22;13298;48.792;9.154;2024-01-15T04:08:30;-1.90;99.90
25342;DHT22;13298;48.792;9.154;2024-01-15T04:10:56;-1.80;99.90
25342;DHT22;13298;48.792;9.154;2024-01-15T04:13:21;-1.70;99.90
25342;DHT22;13298;48.792;9.154;2024-01-15T04:15:47;-1.60;99.90
25342;DHT22;13298;48.792;9.154;2024-01-15T04:18:13;-1.50;99.90
25342;DHT22;13298;48.792;9.154;2024-01-15T04:20:38;-1.40;99.90
25342;DHT22;13298;48.792;9.154;2024-01-15T04:23:05;-1.40;99.90
25342;DHT22;13298;48.792;9.154;2024-01-15T04:25:30;-1.40;99.90
25342;DHT22;13298;48.792;9.154;2024-01-15T04:27:56;-1.30;99.90
25342;DHT22;13298;48.792;9.154;2024-01-15T04:30:22;-1.30;99.90
25342;DHT22;13298;48.792;9.154;2024-01-15T04:32:48;-1.20;99.90
25342;DHT22;13298;48.792;9.154;2024-01-15T04:35:13;-1.20;99.90
25342;DHT22;13298;48.792;9.154;2024-01-15T04:37:42;-1.20;99.90
25342;DHT22;13298;48.792;9.154;2024-01-15T04:40:08;-1.10;99.90
25342;DHT22;13298;48.792;9.154;2024-01-15T04:42:34;-1.00;99.90
25342;DHT22;13298;48.792;9.154;2024-01-15T04:45:00;-1.00;99.90
25342;DHT22;13298;48.792;9.154;2024-01-15T04:47:26;-1.00;99.90
25342;DHT22;13298;48.792;9.154;2024-01-15T04:49:52;-1.00;99.90
25342;DHT22;13298;48.792;9.154;2024-01-15T04:52:17;-1.00;99.90
25342;DHT22;13298;48.792;9.154;2024-01-15T04:54:43;-0.90;99.90
25342;DHT22;13298;48.792;9.154;2024-01-15T04:57:09;-0.90;99.90
25342;DHT22;13298;48.792;9.154;2024-01-15T04:59:34;-0.90;99.90
25342;DHT22;13298;48.792;9.154;2024-01-15T05:02:00;-0.90;99.90
25342;DHT22;13298;48.792;9.154;2024-01-15T05:04:26;-0.80;99.90
25342;DHT22;13298;48.792;9.154;2024-01-15T05:06:53;-0.80;99.90
25342;DHT22;13298;48.792;9.154;2024-01-15T05:09:20;-0.80;99.90
25342;DHT22;13298;48.792;9.154;2024-01-15T05:11:46;-0.80;99.90
25342;DHT22;13298;48.792;9.154;2024-01-15T05:14:12;-0.80;99.90
25342;DHT22;13298;48.792;9.154;2024-01-15T05:16:48;-0.80;99.90
25342;DHT22;13298;48.792;9.154;2024-01-15T05:19:14;-0.80;99.90
25342;DHT22;13298;48.792;9.154;2024-01-15T05:21:39;-0.80;99.90
25342;DHT22;13298;48.792;9.154;2024-01-15T05:24:05;-0.80;99.90
25342;DHT22;13298;48.792;9.154;2024-01-15T05:26:31;-0.80;99.90
25342;DHT22;13298;48.792;9.154;2024-01-15T05:28:57;-0.80;99.90
25342;DHT22;13298;48.792;9.154;2024-01-15T05:31:22;-0.80;99.90
25342;DHT22;13298;48.792;9.154;2024-01-15T05:33:48;-0.70;99.90
25342;DHT22;13298;48.792;9.154;2024-01-15T05:36:14;-0.70;99.90
25342;DHT22;13298;48.792;9.154;2024-01-15T05:38:40;-0.70;99.90
25342;DHT22;13298;48.792;9.154;2024-01-15T05:41:05;-0.70;99.90
25342;DHT22;13298;48.792;9.154;2024-01-15T05:43:31;-0.70;99.90
25342;DHT22;13298;48.792;9.154;2024-01-15T05:45:57;-0.70;99.90
25342;DHT22;13298;48.792;9.154;2024-01-15T05:48:23;-0.60;99.90
25342;DHT22;13298;48.792;9.154;2024-01-15T05:50:49;-0.70;99.90
25342;DHT22;13298;48.792;9.154;2024-01-15T05:53:14;-0.60;99.90
25342;DHT22;13298;48.792;9.154;2024-01-15T05:55:40;-0.60;99.90
25342;DHT22;13298;48.792;9.154;2024-01-15T05:58:06;-0.60;99.90
25342;DHT22;13298;48.792;9.154;2024-01-15T06:00:32;-0.60;99.90
25342;DHT22;13298;48.792;9.154;2024-01-15T06:03:01;-0.60;99.90
25342;DHT22;13298;48.792;9.154;2024-01-15T06:05:27;-0.60;99.90
25342;DHT22;13298;48.792;9.154;2024-01-15T06:07:53;-0.60;99.90
25342;DHT22;13298;48.792;9.154;2024-01-15T06:10:18;-0.70;99.90
25342;DHT22;13298;48.792;9.154;2024-01-15T06:12:44;-0.70;99.90
25342;DHT22;13298;48.792;9.154;2024-01-15T06:15:10;-0.60;99.90
25342;DHT22;13298;48.792;9.154;2024-01-15T06:17:36;-0.60;99.90
25342;DHT22;13298;48.792;9.154;2024-01-15T06:20:03;-0.70;99.90
25342;DHT22;13298;48.792;9.154;2024-01-15T06:22:28;-0.60;99.90
25342;DHT22;13298;48.792;9.154;2024-01-15T06:24:54;-0.70;99.90
25342;DHT22;13298;48.792;9.154;2024-01-15T06:27:21;-0.70;99.90
25342;DHT22;13298;48.792;9.154;2024-01-15T06:29:47;-0.70;99.90
25342;DHT22;13298;48.792;9.154;2024-01-15T06:32:13;-0.70;99.90
25342;DHT22;13298;48.792;9.154;2024-01-15T06:34:39;-0.70;99.90
25342;DHT22;13298;48.792;9.154;2024-01-15T06:37:05;-0.70;99.90
25342;DHT22;13298;48.792;9.154;2024-01-15T06:39:31;-0.60;99.90
25342;DHT22;13298;48.792;9.154;2024-01-15T06:41:56;-0.60;99.90
25342;DHT22;13298;48.792;9.154;2024-01-15T06:44:22;-0.60;99.90
25342;DHT22;13298;48.792;9.154;2024-01-15T06:46:48;-0.60;99.90
25342;DHT22;13298;48.792;9.154;2024-01-15T06:49:14;-0.60;99.90
25342;DHT22;13298;48.792;9.154;2024-01-15T06:51:39;-0.60;99.90
25342;DHT22;13298;48.792;9.154;2024-01-15T06:54:05;-0.60;99.90
25342;DHT22;13298;48.792;9.154;2024-01-15T06:56:32;-0.70;99.90
25342;DHT22;13298;48.792;9.154;2024-01-15T06:58:57;-0.70;99.90
25342;DHT22;13298;48.792;9.154;2024-01-15T07:01:23;-0.60;99.90
25342;DHT22;13298;48.792;9.154;2024-01-15T07:03:49;-0.60;99.90
25342;DHT22;13298;48.792;9.154;2024-01-15T07:06:15;-0.60;99.90
25342;DHT22;13298;48.792;9.154;2024-01-15T07:08:42;-0.60;99.90
25342;DHT22;13298;48.792;9.154;2024-01-15T07:11:08;-0.60;99.90
25342;DHT22;13298;48.792;9.154;2024-01-15T07:13:35;-0.50;99.90
25342;DHT22;13298;48.792;9.154;2024-01-15T07:16:01;-0.50;99.90
25342;DHT22;13298;48.792;9.154;2024-01-15T07:18:27;-0.50;99.90
25342;DHT22;13298;48.792;9.154;2024-01-15T07:20:53;-0.50;99.90
25342;DHT22;13298;48.792;9.154;2024-01-15T07:23:18;-0.50;99.90
25342;DHT22;13298;48.792;9.154;2024-01-15T07:25:44;-0.50;99.90
25342;DHT22;13298;48.792;9.154;2024-01-15T07:28:10;-0.50;99.90
25342;DHT22;13298;48.792;9.154;2024-01-15T07:30:35;-0.50;99.90
25342;DHT22;13298;48.792;9.154;2024-01-15T07:33:04;-0.50;99.90
25342;DHT22;13298;48.792;9.154;2024-01-15T07:35:30;-0.50;99.90
25342;DHT22;13298;48.792;9.154;2024-01-15T07:37:55;-0.40;99.90
25342;DHT22;13298;48.792;9.154;2024-01-15T07:40:21;-0.40;99.90
25342;DHT22;13298;48.792;9.154;2024-01-15T07:42:47;-0.40;99.90
25342;DHT22;13298;48.792;9.154;2024-01-15T07:45:13;-0.40;99.90
25342;DHT22;13298;48.792;9.154;2024-01-15T07:47:38;-0.40;99.90
25342;DHT22;13298;48.792;9.154;2024-01-15T07:50:04;-0.40;99.90
25342;DHT22;13298;48.792;9.154;2024-01-15T07:52:30;-0.30;99.90
25342;DHT22;13298;48.792;9.154;2024-01-15T07:54:56;-0.30;99.90
25342;DHT22;13298;48.792;9.154;2024-01-15T07:57:22;-0.30;99.90
25342;DHT22;13298;48.792;9.154;2024-01-15T07:59:48;-0.20;99.90
25342;DHT22;13298;48.792;9.154;2024-01-15T08:02:14;-0.30;99.90
25342;DHT22;13298;48.792;9.154;2024-01-15T08:04:39;-0.20;99.90
25342;DHT22;13298;48.792;9.154;2024-01-15T08:07:05;-0.20;99.90
25342;DHT22;13298;48.792;9.154;2024-01-15T08:09:33;-0.20;99.90
25342;DHT22;13298;48.792;9.154;2024-01-15T08:11:59;-0.20;99.90
25342;DHT22;13298;48.792;9.154;2024-01-15T08:14:25;-0.10;99.90
25342;DHT22;13298;48.792;9.154;2024-01-15T08:16:51;-0.10;99.90
25342;DHT22;13298;48.792;9.154;2024-01-15T08:19:16;0.00;99.90
25342;DHT22;13298;48.792;9.154;2024-01-15T08:21:42;0.00;99.90
25342;DHT22;13298;48.792;9.154;2024-01-15T08:24:08;0.00;99.90
25342;DHT22;13298;48.792;9.154;2024-01-15T08:26:34;0.10;99.90
25342;DHT22;13298;48.792;9.154;2024-01-15T08:28:59;0.10;99.90
25342;DHT22;13298;48.792;9.154;2024-01-15T08:31:25;0.10;99.90
25342;DHT22;13298;48.792;9.154;2024-01-15T08:33:51;0.20;99.90
25342;DHT22;13298;48.792;9.154;2024-01-15T08:36:17;0.20;99.90
25342;DHT22;13298;48.792;9.154;2024-01-15T08:38:43;0.30;99.90
25342;DHT22;13298;48.792;9.154;2024-01-15T08:41:10;0.30;99.90
25342;DHT22;13298;48.792;9.154;2024-01-15T08:43:35;0.40;99.90
25342;DHT22;13298;48.792;9.154;2024-01-15T08:46:01;0.40;99.90
25342;DHT22;13298;48.792;9.154;2024-01-15T08:48:28;0.40;99.90
25342;DHT22;13298;48.792;9.154;2024-01-15T08:50:54;0.50;99.90
25342;DHT22;13298;48.792;9.154;2024-01-15T08:53:20;0.50;99.90
25342;DHT22;13298;48.792;9.154;2024-01-15T08:55:46;0.60;99.90
25342;DHT22;13298;48.792;9.154;2024-01-15T08:58:13;0.60;99.90
25342;DHT22;13298;48.792;9.154;2024-01-15T09:00:39;0.70;99.90
25342;DHT22;13298;48.792;9.154;2024-01-15T09:03:05;0.70;99.90
25342;DHT22;13298;48.792;9.154;2024-01-15T09:05:31;0.80;99.90
25342;DHT22;13298;48.792;9.154;2024-01-15T09:07:56;0.80;99.90
25342;DHT22;13298;48.792;9.154;2024-01-15T09:10:22;0.80;99.90
25342;DHT22;13298;48.792;9.154;2024-01-15T09:12:48;0.90;99.90
25342;DHT22;13298;48.792;9.154;2024-01-15T09:15:17;0.90;99.90
25342;DHT22;13298;48.792;9.154;2024-01-15T09:17:42;1.00;99.90
25342;DHT22;13298;48.792;9.154;2024-01-15T09:20:09;1.00;99.90
25342;DHT22;13298;48.792;9.154;2024-01-15T09:22:35;1.00;99.90
25342;DHT22;13298;48.792;9.154;2024-01-15T09:25:03;1.00;99.90
25342;DHT22;13298;48.792;9.154;2024-01-15T09:27:29;1.00;99.90
25342;DHT22;13298;48.792;9.154;2024-01-15T09:29:55;1.10;99.90
25342;DHT22;13298;48.792;9.154;2024-01-15T09:32:21;1.10;99.90
25342;DHT22;13298;48.792;9.154;2024-01-15T09:34:46;1.20;99.90
25342;DHT22;13298;48.792;9.154;2024-01-15T09:37:13;1.20;99.90
25342;DHT22;13298;48.792;9.154;2024-01-15T09:39:39;1.30;99.90
25342;DHT22;13298;48.792;9.154;2024-01-15T09:42:05;1.30;99.90
25342;DHT22;13298;48.792;9.154;2024-01-15T09:44:31;1.40;99.90
25342;DHT22;13298;48.792;9.154;2024-01-15T09:46:57;1.40;99.90
25342;DHT22;13298;48.792;9.154;2024-01-15T09:49:24;1.40;99.90
25342;DHT22;13298;48.792;9.154;2024-01-15T09:51:49;1.40;99.90
25342;DHT22;13298;48.792;9.154;2024-01-15T09:54:18;1.50;99.90
25342;DHT22;13298;48.792;9.154;2024-01-15T09:56:47;1.50;99.90
25342;DHT22;13298;48.792;9.154;2024-01-15T09:59:17;1.50;99.90
25342;DHT22;13298;48.792;9.154;2024-01-15T10:01:44;1.50;99.90
25342;DHT22;13298;48.792;9.154;2024-01-15T10:04:13;1.60;99.90
25342;DHT22;13298;48.792;9.154;2024-01-15T10:06:41;1.60;99.90
25342;DHT22;13298;48.792;9.154;2024-01-15T10:09:12;1.60;99.90
25342;DHT22;13298;48.792;9.154;2024-01-15T10:11:42;1.60;99.90
25342;DHT22;13298;48.792;9.154;2024-01-15T10:14:12;1.60;99.90
25342;DHT22;13298;48.792;9.154;2024-01-15T10:16:41;1.60;99.90
25342;DHT22;13298;48.792;9.154;2024-01-15T10:19:08;1.60;99.90
25342;DHT22;13298;48.792;9.154;2024-01-15T10:21:35;1.70;99.90
25342;DHT22;13298;48.792;9.154;2024-01-15T10:24:01;1.70;99.90
25342;DHT22;13298;48.792;9.154;2024-01-15T10:26:32;1.70;99.90
25342;DHT22;13298;48.792;9.154;2024-01-15T10:29:01;1.60;99.90
25342;DHT22;13298;48.792;9.154;2024-01-15T10:31:27;1.60;99.90
25342;DHT22;13298;48.792;9.154;2024-01-15T10:33:54;1.60;99.90
25342;DHT22;13298;48.792;9.154;2024-01-15T10:36:19;1.60;99.90
25342;DHT22;13298;48.792;9.154;2024-01-15T10:38:45;1.60;99.90
25342;DHT22;13298;48.792;9.154;2024-01-15T10:41:11;1.60;99.90
25342;DHT22;13298;48.792;9.154;2024-01-15T10:43:37;1.60;99.90
25342;DHT22;13298;48.792;9.154;2024-01-15T10:46:03;1.70;99.90
25342;DHT22;13298;48.792;9.154;2024-01-15T10:48:29;1.70;99.90
25342;DHT22;13298;48.792;9.154;2024-01-15T10:50:57;1.70;99.90
25342;DHT22;13298;48.792;9.154;2024-01-15T10:53:24;1.70;99.90
25342;DHT22;13298;48.792;9.154;2024-01-15T10:55:50;1.80;99.90
25342;DHT22;13298;48.792;9.154;2024-01-15T10:58:20;1.80;99.90
25342;DHT22;13298;48.792;9.154;2024-01-15T11:00:48;1.90;99.90
25342;DHT22;13298;48.792;9.154;2024-01-15T11:03:14;2.00;99.90
25342;DHT22;13298;48.792;9.154;2024-01-15T11:05:44;2.00;99.90
25342;DHT22;13298;48.792;9.154;2024-01-15T11:08:10;2.10;99.90
25342;DHT22;13298;48.792;9.154;2024-01-15T11:10:40;2.10;99.90
25342;DHT22;13298;48.792;9.154;2024-01-15T11:13:15;2.20;99.90
25342;DHT22;13298;48.792;9.154;2024-01-15T11:15:57;2.20;99.90
25342;DHT22;13298;48.792;9.154;2024-01-15T11:18:34;2.10;99.90
25342;DHT22;13298;48.792;9.154;2024-01-15T11:31:58;1.80;99.90
25342;DHT22;13298;48.792;9.154;2024-01-15T11:34:55;1.80;99.90
25342;DHT22;13298;48.792;9.154;2024-01-15T11:40:20;1.90;99.90
25342;DHT22;13298;48.792;9.154;2024-01-15T11:42:46;1.90;99.90
25342;DHT22;13298;48.792;9.154;2024-01-15T11:45:22;1.90;99.90
25342;DHT22;13298;48.792;9.154;2024-01-15T11:50:34;1.80;99.90
25342;DHT22;13298;48.792;9.154;2024-01-15T11:53:01;1.70;99.90
25342;DHT22;13298;48.792;9.154;2024-01-15T11:55:37;1.60;99.90
25342;DHT22;13298;48.792;9.154;2024-01-15T11:58:11;1.50;99.90
25342;DHT22;13298;48.792;9.154;2024-01-15T12:00:51;1.40;99.90
25342;DHT22;13298;48.792;9.154;2024-01-15T12:03:20;1.40;99.90
25342;DHT22;13298;48.792;9.154;2024-01-15T12:05:46;1.30;99.90
25342;DHT22;13298;48.792;9.154;2024-01-15T12:08:12;1.30;99.90
25342;DHT22;13298;48.792;9.154;2024-01-15T12:10:38;1.30;99.90
25342;DHT22;13298;48.792;9.154;2024-01-15T12:13:13;1.30;99.90
25342;DHT22;13298;48.792;9.154;2024-01-15T12:15:40;1.40;99.90
25342;DHT22;13298;48.792;9.154;2024-01-15T12:18:08;1.40;99.90
25342;DHT22;13298;48.792;9.154;2024-01-15T12:20:35;1.40;99.90
25342;DHT22;13298;48.792;9.154;2024-01-15T12:23:02;1.30;99.90
25342;DHT22;13298;48.792;9.154;2024-01-15T12:25:32;1.30;99.90
25342;DHT22;13298;48.792;9.154;2024-01-15T12:27:59;1.20;99.90
25342;DHT22;13298;48.792;9.154;2024-01-15T12:30:29;1.20;99.90
25342;DHT22;13298;48.792;9.154;2024-01-15T12:32:57;1.10;99.90
25342;DHT22;13298;48.792;9.154;2024-01-15T12:35:24;1.10;99.90
25342;DHT22;13298;48.792;9.154;2024-01-15T12:37:55;1.10;99.90
25342;DHT22;13298;48.792;9.154;2024-01-15T12:40:22;1.10;99.90
25342;DHT22;13298;48.792;9.154;2024-01-15T12:42:48;1.10;99.90
25342;DHT22;13298;48.792;9.154;2024-01-15T12:45:14;1.00;99.90
25342;DHT22;13298;48.792;9.154;2024-01-15T12:47:41;1.00;99.90
25342;DHT22;13298;48.792;9.154;2024-01-15T12:50:11;0.90;99.90
25342;DHT22;13298;48.792;9.154;2024-01-15T12:52:40;0.90;99.90
25342;DHT22;13298;48.792;9.154;2024-01-15T12:55:07;0.80;99.90
25342;DHT22;13298;48.792;9.154;2024-01-15T12:57:34;0.80;99.90
25342;DHT22;13298;48.792;9.154;2024-01-15T13:00:01;0.80;99.90
25342;DHT22;13298;48.792;9.154;2024-01-15T13:02:27;0.80;99.90
25342;DHT22;13298;48.792;9.154;2024-01-15T13:04:53;0.90;99.90
25342;DHT22;13298;48.792;9.154;2024-01-15T13:07:19;0.90;99.90
25342;DHT22;13298;48.792;9.154;2024-01-15T13:09:45;1.00;99.90
25342;DHT22;13298;48.792;9.154;2024-01-15T13:12:11;1.00;99.90
25342;DHT22;13298;48.792;9.154;2024-01-15T13:14:37;1.00;99.90
25342;DHT22;13298;48.792;9.154;2024-01-15T13:17:03;1.00;99.90
25342;DHT22;13298;48.792;9.154;2024-01-15T13:19:29;0.90;99.90
25342;DHT22;13298;48.792;9.154;2024-01-15T13:21:54;0.90;99.90
25342;DHT22;13298;48.792;9.154;2024-01-15T13:24:21;0.80;99.90
25342;DHT22;13298;48.792;9.154;2024-01-15T13:26:48;0.80;99.90
25342;DHT22;13298;48.792;9.154;2024-01-15T13:29:13;0.70;99.90
25342;DHT22;13298;48.792;9.154;2024-01-15T13:31:40;0.70;99.90
25342;DHT22;13298;48.792;9.154;2024-01-15T13:34:06;0.70;99.90
25342;DHT22;13298;48.792;9.154;2024-01-15T13:36:32;0.80;99.90
25342;DHT22;13298;48.792;9.154;2024-01-15T13:38:58;0.70;99.90
25342;DHT22;13298;48.792;9.154;2024-01-15T13:41:24;0.70;99.90
25342;DHT22;13298;48.792;9.154;2024-01-15T13:43:53;0.70;99.90
25342;DHT22;13298;48.792;9.154;2024-01-15T13:46:20;0.70;99.90
25342;DHT22;13298;48.792;9.154;2024-01-15T13:48:49;0.60;99.90
25342;DHT22;13298;48.792;9.154;2024-01-15T13:51:14;0.60;99.90
25342;DHT22;13298;48.792;9.154;2024-01-15T13:53:40;0.60;99.90
25342;DHT22;13298;48.792;9.154;2024-01-15T13:56:07;0.60;99.90
25342;DHT22;13298;48.792;9.154;2024-01-15T13:58:35;0.60;99.90
25342;DHT22;13298;48.792;9.154;2024-01-15T14:01:02;0.60;99.90
25342;DHT22;13298;48.792;9.154;2024-01-15T14:03:29;0.60;99.90
25342;DHT22;13298;48.792;9.154;2024-01-15T14:05:55;0.60;99.90
25342;DHT22;13298;48.792;9.154;2024-01-15T14:08:21;0.60;99.90
25342;DHT22;13298;48.792;9.154;2024-01-15T14:10:46;0.60;99.90
25342;DHT22;13298;48.792;9.154;2024-01-15T14:13:12;0.60;99.90
25342;DHT22;13298;48.792;9.154;2024-01-15T14:15:38;0.60;99.90
25342;DHT22;13298;48.792;9.154;2024-01-15T14:18:04;0.60;99.90
25342;DHT22;13298;48.792;9.154;2024-01-15T14:20:30;0.60;99.90
25342;DHT22;13298;48.792;9.154;2024-01-15T14:22:56;0.60;99.90
25342;DHT22;13298;48.792;9.154;2024-01-15T14:25:21;0.70;99.90
25342;DHT22;13298;48.792;9.154;2024-01-15T14:27:48;0.70;99.90
25342;DHT22;13298;48.792;9.154;2024-01-15T14:30:14;0.70;99.90
25342;DHT22;13298;48.792;9.154;2024-01-15T14:32:41;0.70;99.90
25342;DHT22;13298;48.792;9.154;2024-01-15T14:35:08;0.70;99.90
25342;DHT22;13298;48.792;9.154;2024-01-15T14:37:36;0.70;99.90
25342;DHT22;13298;48.792;9.154;2024-01-15T14:40:03;0.60;99.90
25342;DHT22;13298;48.792;9.154;2024-01-15T14:42:30;0.50;99.90
25342;DHT22;13298;48.792;9.154;2024-01-15T14:44:56;0.50;99.90
25342;DHT22;13298;48.792;9.154;2024-01-15T14:47:22;0.40;99.90
25342;DHT22;13298;48.792;9.154;2024-01-15T14:49:49;0.40;99.90
25342;DHT22;13298;48.792;9.154;2024-01-15T14:52:15;0.30;99.90
25342;DHT22;13298;48.792;9.154;2024-01-15T14:54:41;0.30;99.90
25342;DHT22;13298;48.792;9.154;2024-01-15T14:57:07;0.20;99.90
25342;DHT22;13298;48.792;9.154;2024-01-15T14:59:32;0.20;99.90
25342;DHT22;13298;48.792;9.154;2024-01-15T15:01:58;0.10;99.90
25342;DHT22;13298;48.792;9.154;2024-01-15T15:04:24;0.10;99.90
25342;DHT22;13298;48.792;9.154;2024-01-15T15:06:49;0.00;99.90
25342;DHT22;13298;48.792;9.154;2024-01-15T15:09:15;0.10;99.90
25342;DHT22;13298;48.792;9.154;2024-01-15T15:11:41;0.00;99.90
25342;DHT22;13298;48.792;9.154;2024-01-15T15:14:07;-0.10;99.90
25342;DHT22;13298;48.792;9.154;2024-01-15T15:16:32;-0.10;99.90
25342;DHT22;13298;48.792;9.154;2024-01-15T15:18:58;-0.10;99.90
25342;DHT22;13298;48.792;9.154;2024-01-15T15:21:24;-0.10;99.90
25342;DHT22;13298;48.792;9.154;2024-01-15T15:23:49;-0.20;99.90
25342;DHT22;13298;48.792;9.154;2024-01-15T15:26:15;-0.20;99.90
25342;DHT22;13298;48.792;9.154;2024-01-15T15:28:41;-0.10;99.90
25342;DHT22;13298;48.792;9.154;2024-01-15T15:31:07;-0.20;99.90
25342;DHT22;13298;48.792;9.154;2024-01-15T15:33:34;-0.10;99.90
25342;DHT22;13298;48.792;9.154;2024-01-15T15:36:00;-0.20;99.90
25342;DHT22;13298;48.792;9.154;2024-01-15T15:38:30;-0.20;99.90
25342;DHT22;13298;48.792;9.154;2024-01-15T15:40:59;-0.20;99.90
25342;DHT22;13298;48.792;9.154;2024-01-15T15:43:26;-0.20;99.90
25342;DHT22;13298;48.792;9.154;2024-01-15T15:45:52;-0.20;99.90
25342;DHT22;13298;48.792;9.154;2024-01-15T15:48:17;-0.20;99.90